Time;durP1;ratioP1;P1;durP2;ratioP2;P2;SDS_P1;SDS_P2;PMS_P1;PMS_P2;Temp;Humidity;BMP_temperature;BMP_pressure;BME280_temperature;BME280_humidity;BME280_pressure;Samples;Min_cycle;Max_cycle;Signal;HPM_P1;HPM_P2
2023/09/14 00:02:39;;;;;;;;;;;;;;;10.53;100.00;102311.19;5046163;28;19928;-80
2023/09/14 00:05:25;;;;;;;;;;;;;;;10.52;100.00;102319.16;5047278;28;20129;-81
2023/09/14 00:08:12;;;;;;;;;;;;;;;10.49;100.00;102321.84;5050109;28;20019;-81
2023/09/14 00:10:58;;;;;;;;;;;;;;;10.43;100.00;102323.75;5044724;28;19928;-81
2023/09/14 00:13:44;;;;;;;;;;;;;;;10.43;100.00;102328.16;5044095;28;19935;-80
2023/09/14 00:16:29;;;;;;;;;;;;;;;10.41;100.00;102341.38;5044535;28;20161;-81
2023/09/14 00:19:15;;;;;;;;;;;;;;;10.38;100.00;102336.16;5047847;28;19932;-81
2023/09/14 00:22:00;;;;;;;;;;;;;;;10.38;100.00;102341.47;5061209;28;19940;-82
2023/09/14 00:24:46;;;;;;;;;;;;;;;10.38;100.00;102336.16;5048954;28;19928;-80
2023/09/14 00:27:32;;;;;;;;;;;;;;;10.38;100.00;102340.56;5045476;28;19943;-80
2023/09/14 00:30:21;;;;;;;;;;;;;;;10.37;100.00;102339.72;5046591;28;19938;-81
2023/09/14 00:33:08;;;;;;;;;;;;;;;10.37;100.00;102338.84;5045144;28;19978;-81
2023/09/14 00:35:53;;;;;;;;;;;;;;;10.34;100.00;102331.81;5044130;28;19940;-82
2023/09/14 00:38:39;;;;;;;;;;;;;;;10.33;100.00;102341.56;5047589;28;20343;-81
2023/09/14 00:41:25;;;;;;;;;;;;;;;10.33;100.00;102340.66;5060347;28;20054;-80
2023/09/14 00:44:11;;;;;;;;;;;;;;;10.32;100.00;102331.00;5049141;28;20540;-81
2023/09/14 00:46:56;;;;;;;;;;;;;;;10.31;100.00;102338.03;5047043;28;20456;-82
2023/09/14 00:49:42;;;;;;;;;;;;;;;10.30;100.00;102331.00;5042983;28;19928;-81
2023/09/14 00:52:28;;;;;;;;;;;;;;;10.30;100.00;102328.38;5047076;28;19940;-80
2023/09/14 00:55:14;;;;;;;;;;;;;;;10.30;100.00;102332.81;5048857;28;19929;-81
2023/09/14 00:58:00;;;;;;;;;;;;;;;10.29;100.00;102336.34;5044741;28;19978;-80
2023/09/14 01:00:45;;;;;;;;;;;;;;;10.27;100.00;102338.16;5042746;28;20072;-79
2023/09/14 01:03:31;;;;;;;;;;;;;;;10.25;100.00;102334.66;5050459;28;19929;-81
2023/09/14 01:06:17;;;;;;;;;;;;;;;10.23;100.00;102333.84;5048402;28;20321;-81
2023/09/14 01:09:04;;;;;;;;;;;;;;;10.19;100.00;102333.88;5053402;28;20444;-81
2023/09/14 01:11:50;;;;;;;;;;;;;;;10.18;100.00;102336.56;5037496;28;19972;-80
2023/09/14 01:14:50;;;;;;;;;;;;;;;10.16;100.00;102333.97;5051180;28;19929;-80
2023/09/14 01:17:41;;;;;;;;;;;;;;;10.13;100.00;102333.16;5065775;28;19969;-80
2023/09/14 01:20:42;;;;;;;;;;;;;;;10.09;100.00;102329.69;5051008;28;20064;-81
2023/09/14 01:23:28;;;;;;;;;;;;;;;10.04;100.00;102324.47;5047390;28;20329;-82
2023/09/14 01:26:15;;;;;;;;;;;;;;;10.00;100.00;102324.56;5050753;28;19971;-81
2023/09/14 01:29:04;;;;;;;;;;;;;;;9.97;100.00;102322.84;5046904;28;20041;-82
2023/09/14 01:31:49;;;;;;;;;;;;;;;9.96;100.00;102322.91;5050068;28;20085;-82
2023/09/14 01:34:35;;;;;;;;;;;;;;;9.92;100.00;102320.28;5050823;28;19928;-81
2023/09/14 01:37:21;;;;;;;;;;;;;;;9.89;100.00;102307.13;5045679;28;20618;-82
2023/09/14 01:40:09;;;;;;;;;;;;;;;9.88;100.00;102315.09;5050657;28;20353;-82
2023/09/14 01:42:54;;;;;;;;;;;;;;;9.85;100.00;102313.38;5051099;28;19932;-81
2023/09/14 01:45:40;;;;;;;;;;;;;;;9.82;100.00;102313.44;5046669;28;19950;-82
2023/09/14 01:48:26;;;;;;;;;;;;;;;9.80;100.00;102317.88;5056041;28;19925;-81
2023/09/14 01:51:12;;;;;;;;;;;;;;;9.77;100.00;102317.94;5050560;28;20031;-80
2023/09/14 01:53:57;;;;;;;;;;;;;;;9.75;100.00;102314.47;5051652;28;20499;-79
2023/09/14 01:56:43;;;;;;;;;;;;;;;9.73;100.00;102313.59;5051088;28;19936;-80
2023/09/14 01:59:28;;;;;;;;;;;;;;;9.71;100.00;102312.75;5049413;28;19938;-80
2023/09/14 02:02:14;;;;;;;;;;;;;;;9.70;100.00;102308.38;5047314;28;20346;-79
2023/09/14 02:05:00;;;;;;;;;;;;;;;9.67;100.00;102304.00;5049549;28;19929;-81
2023/09/14 02:07:46;;;;;;;;;;;;;;;9.64;100.00;102302.28;5050911;28;20414;-80
2023/09/14 02:10:31;;;;;;;;;;;;;;;9.63;100.00;102297.91;5051523;28;19935;-80
2023/09/14 02:13:17;;;;;;;;;;;;;;;9.60;100.00;102303.25;5048559;28;19928;-80
2023/09/14 02:16:03;;;;;;;;;;;;;;;9.59;100.00;102306.78;5049959;28;19963;-80
2023/09/14 02:18:49;;;;;;;;;;;;;;;9.57;100.00;102300.66;5050935;28;20157;-79
2023/09/14 02:21:35;;;;;;;;;;;;;;;9.57;100.00;102297.13;5050097;28;19924;-80
2023/09/14 02:24:20;;;;;;;;;;;;;;;9.54;100.00;102303.38;5049291;28;19929;-80
2023/09/14 02:27:06;;;;;;;;;;;;;;;9.53;100.00;102293.66;5047531;28;19936;-80
2023/09/14 02:29:53;;;;;;;;;;;;;;;9.51;100.00;102298.13;5051104;28;20383;-81
2023/09/14 02:32:38;;;;;;;;;;;;;;;9.49;100.00;102295.50;5045768;28;19939;-81
2023/09/14 02:35:24;;;;;;;;;;;;;;;9.47;100.00;102301.72;5051228;28;19929;-81
2023/09/14 02:38:09;;;;;;;;;;;;;;;9.46;100.00;102295.56;5048988;28;21225;-81
2023/09/14 02:40:55;;;;;;;;;;;;;;;9.44;100.00;102294.72;5050391;28;19959;-81
2023/09/14 02:43:41;;;;;;;;;;;;;;;9.44;100.00;102291.19;5050724;28;19932;-81
2023/09/14 02:46:26;;;;;;;;;;;;;;;9.40;100.00;102295.66;5046613;28;20063;-81
2023/09/14 02:49:12;;;;;;;;;;;;;;;9.39;100.00;102288.66;5034526;28;20107;-80
2023/09/14 02:51:58;;;;;;;;;;;;;;;9.38;100.00;102286.91;5054823;28;19928;-81
2023/09/14 02:54:46;;;;;;;;;;;;;;;9.36;100.00;102291.31;5050190;28;19932;-80
2023/09/14 02:57:32;;;;;;;;;;;;;;;9.34;100.00;102299.31;5049903;28;20867;-79
2023/09/14 03:00:18;;;;;;;;;;;;;;;9.31;100.00;102291.41;5046172;28;19967;-80
2023/09/14 03:03:04;;;;;;;;;;;;;;;9.31;100.00;102283.47;5049084;28;19986;-80
2023/09/14 03:05:50;;;;;;;;;;;;;;;9.31;100.00;102286.13;5035030;28;19932;-81
2023/09/14 03:08:36;;;;;;;;;;;;;;;9.30;100.00;102281.75;5048962;28;20494;-81
2023/09/14 03:11:21;;;;;;;;;;;;;;;9.30;100.00;102280.84;5045230;28;20015;-81
2023/09/14 03:14:07;;;;;;;;;;;;;;;9.28;100.00;102280.91;5050798;28;20051;-81
2023/09/14 03:16:53;;;;;;;;;;;;;;;9.27;100.00;102279.16;5049804;28;19986;-79
2023/09/14 03:19:41;;;;;;;;;;;;;;;9.28;100.00;102280.03;5052051;28;19928;-81
2023/09/14 03:22:29;;;;;;;;;;;;;;;9.31;100.00;102283.47;5050410;28;19959;-80
2023/09/14 03:25:15;;;;;;;;;;;;;;;9.36;100.00;102273.72;5048999;28;19929;-81
2023/09/14 03:28:00;;;;;;;;;;;;;;;9.38;100.00;102282.47;5050491;28;19933;-81
2023/09/14 03:30:46;;;;;;;;;;;;;;;9.38;100.00;102279.84;5048156;28;20382;-82
2023/09/14 03:33:31;;;;;;;;;;;;;;;9.37;100.00;102279.84;5049561;28;19932;-80
2023/09/14 03:36:17;;;;;;;;;;;;;;;9.38;100.00;102274.53;5050946;28;19928;-80
2023/09/14 03:39:03;;;;;;;;;;;;;;;9.42;100.00;102279.78;5051486;28;19925;-80
2023/09/14 03:41:49;;;;;;;;;;;;;;;9.44;100.00;102280.63;5047982;28;20026;-81
2023/09/14 03:44:34;;;;;;;;;;;;;;;9.43;100.00;102273.59;5046944;28;20006;-81
2023/09/14 03:47:22;;;;;;;;;;;;;;;9.37;100.00;102271.91;5049076;28;20039;-81
2023/09/14 03:50:08;;;;;;;;;;;;;;;9.33;100.00;102281.66;5051953;28;20359;-80
2023/09/14 03:52:54;;;;;;;;;;;;;;;9.30;100.00;102286.13;5059225;28;19939;-80
2023/09/14 03:55:40;;;;;;;;;;;;;;;9.30;100.00;102280.84;5062648;28;19925;-80
2023/09/14 03:58:26;;;;;;;;;;;;;;;9.29;100.00;102282.66;5048476;28;19982;-80
2023/09/14 04:01:11;;;;;;;;;;;;;;;9.29;100.00;102285.28;5049947;28;19928;-80
2023/09/14 04:03:57;;;;;;;;;;;;;;;9.25;100.00;102280.94;5049620;28;20414;-81
2023/09/14 04:06:45;;;;;;;;;;;;;;;9.23;100.00;102278.34;5043092;28;20016;-80
2023/09/14 04:09:31;;;;;;;;;;;;;;;9.22;100.00;102275.72;5044392;28;19929;-81
2023/09/14 04:12:16;;;;;;;;;;;;;;;9.20;100.00;102280.13;5041643;28;19928;-80
2023/09/14 04:15:02;;;;;;;;;;;;;;;9.18;100.00;102281.94;5050554;28;19932;-81
2023/09/14 04:17:48;;;;;;;;;;;;;;;9.16;100.00;102286.38;5049173;28;19929;-81
2023/09/14 04:20:33;;;;;;;;;;;;;;;9.14;100.00;102286.41;5048244;28;19928;-80
2023/09/14 04:23:19;;;;;;;;;;;;;;;9.13;100.00;102286.41;5043429;28;19925;-80
2023/09/14 04:26:05;;;;;;;;;;;;;;;9.09;100.00;102281.19;5046097;28;19929;-80
2023/09/14 04:28:53;;;;;;;;;;;;;;;9.08;100.00;102284.75;5048134;28;20061;-81
2023/09/14 04:31:42;;;;;;;;;;;;;;;9.07;100.00;102288.28;5047458;28;20433;-81
2023/09/14 04:34:28;;;;;;;;;;;;;;;9.05;100.00;102284.78;5047550;28;20036;-80
2023/09/14 04:37:13;;;;;;;;;;;;;;;9.03;100.00;102293.63;5032535;28;20514;-81
2023/09/14 04:39:59;;;;;;;;;;;;;;;9.03;100.00;102288.34;5014366;28;19928;-80
2023/09/14 04:42:45;;;;;;;;;;;;;;;9.00;100.00;102285.75;5049836;28;19932;-79
2023/09/14 04:45:30;;;;;;;;;;;;;;;8.99;100.00;102290.16;5053872;28;19954;-81
2023/09/14 04:48:16;;;;;;;;;;;;;;;8.99;100.00;102290.16;5050145;28;19936;-80
2023/09/14 04:51:02;;;;;;;;;;;;;;;8.97;100.00;102291.97;5053245;28;20033;-80
2023/09/14 04:53:48;;;;;;;;;;;;;;;8.95;100.00;102299.91;5053542;28;19928;-81
2023/09/14 04:56:33;;;;;;;;;;;;;;;8.94;100.00;102306.06;5053629;28;19979;-81
2023/09/14 04:59:19;;;;;;;;;;;;;;;8.92;100.00;102299.06;5055408;28;19940;-81
2023/09/14 05:02:05;;;;;;;;;;;;;;;8.92;100.00;102310.53;5040673;28;20656;-81
2023/09/14 05:04:50;;;;;;;;;;;;;;;8.92;100.00;102310.53;5029719;28;19929;-81
2023/09/14 05:07:36;;;;;;;;;;;;;;;8.92;100.00;102317.56;5045537;28;20307;-81
2023/09/14 05:10:22;;;;;;;;;;;;;;;8.93;100.00;102319.34;5004303;28;21489;-81
2023/09/14 05:13:08;;;;;;;;;;;;;;;8.94;100.00;102321.06;5029611;28;19933;-81
2023/09/14 05:15:54;;;;;;;;;;;;;;;8.94;100.00;102321.06;5026832;28;20011;-80
2023/09/14 05:18:39;;;;;;;;;;;;;;;8.94;100.00;102324.56;5017594;28;20384;-80
2023/09/14 05:21:25;;;;;;;;;;;;;;;8.93;100.00;102324.63;5021581;28;20342;-81
2023/09/14 05:24:11;;;;;;;;;;;;;;;8.93;100.00;102332.53;5025569;28;19935;-80
2023/09/14 05:26:56;;;;;;;;;;;;;;;8.93;100.00;102317.53;5026307;28;20455;-81
2023/09/14 05:29:44;;;;;;;;;;;;;;;8.94;100.00;102316.66;5027822;28;19933;-78
2023/09/14 05:32:30;;;;;;;;;;;;;;;8.98;100.00;102325.41;5027647;28;20364;-80
2023/09/14 05:35:16;;;;;;;;;;;;;;;8.99;100.00;102321.84;5018320;28;19933;-80
2023/09/14 05:38:01;;;;;;;;;;;;;;;9.00;100.00;102326.28;5025253;28;19937;-81
2023/09/14 05:40:48;;;;;;;;;;;;;;;9.02;100.00;102323.56;5018079;28;19955;-80
2023/09/14 05:43:34;;;;;;;;;;;;;;;9.04;100.00;102324.44;5017047;28;20066;-80
2023/09/14 05:46:20;;;;;;;;;;;;;;;9.07;100.00;102322.63;5021832;28;19939;-80
2023/09/14 05:49:05;;;;;;;;;;;;;;;9.12;100.00;102321.66;5021816;28;19936;-80
2023/09/14 05:51:51;;;;;;;;;;;;;;;9.17;100.00;102325.13;5032288;28;20350;-80
2023/09/14 05:54:37;;;;;;;;;;;;;;;9.25;100.00;102325.88;5032759;28;20342;-79
2023/09/14 05:57:23;;;;;;;;;;;;;;;9.31;100.00;102322.28;5016411;28;20033;-80
2023/09/14 06:00:13;;;;;;;;;;;;;;;9.34;100.00;102320.44;5029878;28;19970;-80
2023/09/14 06:02:58;;;;;;;;;;;;;;;9.40;100.00;102326.50;5014788;28;20590;-79
2023/09/14 06:05:44;;;;;;;;;;;;;;;9.45;100.00;102325.56;5027214;28;19929;-80
2023/09/14 06:08:30;;;;;;;;;;;;;;;9.50;100.00;102322.81;5027560;28;19940;-79
2023/09/14 06:11:15;;;;;;;;;;;;;;;9.56;100.00;102329.75;5032097;28;19933;-80
2023/09/14 06:14:01;;;;;;;;;;;;;;;9.60;100.00;102328.81;5019479;28;20490;-79
2023/09/14 06:16:47;;;;;;;;;;;;;;;9.65;100.00;102329.63;5017924;28;19935;-79
2023/09/14 06:19:33;;;;;;;;;;;;;;;9.70;100.00;102329.53;5028656;28;19981;-79
2023/09/14 06:22:18;;;;;;;;;;;;;;;9.74;100.00;102328.56;5026495;28;20411;-80
2023/09/14 06:25:04;;;;;;;;;;;;;;;9.82;100.00;102328.44;5032402;28;19935;-80
2023/09/14 06:27:50;;;;;;;;;;;;;;;9.85;100.00;102331.00;5033162;28;19928;-79
2023/09/14 06:30:36;;;;;;;;;;;;;;;9.92;100.00;102335.31;5011376;28;19986;-80
2023/09/14 06:33:21;;;;;;;;;;;;;;;9.97;100.00;102340.50;5016798;28;19912;-81
2023/09/14 06:36:10;;;;;;;;;;;;;;;10.04;100.00;102347.44;5022306;28;20583;-79
2023/09/14 06:38:56;;;;;;;;;;;;;;;10.11;100.00;102343.75;5016000;28;19936;-80
2023/09/14 06:41:42;;;;;;;;;;;;;;;10.19;100.00;102349.75;5017868;28;19936;-80
2023/09/14 06:44:27;;;;;;;;;;;;;;;10.26;100.00;102345.25;5035261;28;19929;-79
2023/09/14 06:47:17;;;;;;;;;;;;;;;10.36;100.00;102353.88;5032254;28;19932;-81
2023/09/14 06:50:03;;;;;;;;;;;;;;;10.43;100.00;102344.91;5036641;28;19928;-80
2023/09/14 06:52:49;;;;;;;;;;;;;;;10.55;100.00;102350.84;5020294;28;19983;-81
2023/09/14 06:55:38;;;;;;;;;;;;;;;10.64;100.00;102344.47;5009059;28;20386;-81
2023/09/14 06:58:26;;;;;;;;;;;;;;;10.72;100.00;102346.06;5036058;28;19933;-81
2023/09/14 07:01:12;;;;;;;;;;;;;;;10.80;100.00;102339.72;5033624;28;20259;-80
2023/09/14 07:03:58;;;;;;;;;;;;;;;10.89;100.00;102338.66;5053437;28;19947;-79
2023/09/14 07:06:44;;;;;;;;;;;;;;;10.97;100.00;102345.53;5049671;28;19932;-80
2023/09/14 07:09:30;;;;;;;;;;;;;;;11.08;100.00;102349.69;5053739;28;19964;-80
2023/09/14 07:12:16;;;;;;;;;;;;;;;11.19;100.00;102347.66;5046089;28;20316;-80
2023/09/14 07:15:02;;;;;;;;;;;;;;;11.30;100.00;102349.16;5054021;28;19929;-79
2023/09/14 07:17:48;;;;;;;;;;;;;;;11.40;100.00;102345.38;5050181;28;19933;-79
2023/09/14 07:20:33;;;;;;;;;;;;;;;11.49;100.00;102347.78;5039323;28;19929;-79
2023/09/14 07:23:19;;;;;;;;;;;;;;;11.60;100.00;102344.00;5050704;28;19931;-80
2023/09/14 07:26:07;;;;;;;;;;;;;;;11.74;100.00;102351.59;5040718;28;20572;-78
2023/09/14 07:28:52;;;;;;;;;;;;;;;11.91;100.00;102351.16;5055654;28;19928;-78
2023/09/14 07:31:39;;;;;;;;;;;;;;;12.05;100.00;102346.34;5055071;28;19972;-78
2023/09/14 07:34:25;;;;;;;;;;;;;;;12.18;100.00;102359.28;5037223;28;19932;-78
2023/09/14 07:37:10;;;;;;;;;;;;;;;12.32;100.00;102365.06;5037607;28;19933;-78
2023/09/14 07:39:56;;;;;;;;;;;;;;;12.44;100.00;102368.31;5044028;28;20011;-77
2023/09/14 07:42:44;;;;;;;;;;;;;;;12.57;100.00;102369.69;5054557;28;19940;-78
2023/09/14 07:45:30;;;;;;;;;;;;;;;12.73;100.00;102369.22;5054542;28;19924;-80
2023/09/14 07:48:16;;;;;;;;;;;;;;;12.90;100.00;102369.59;5052593;28;19928;-79
2023/09/14 07:51:01;;;;;;;;;;;;;;;13.08;100.00;102367.25;5042479;28;19929;-79
2023/09/14 07:53:47;;;;;;;;;;;;;;;13.26;100.00;102364.94;5055396;28;20374;-79
2023/09/14 07:56:33;;;;;;;;;;;;;;;13.46;100.00;102366.09;5057390;28;19928;-78
2023/09/14 07:59:21;;;;;;;;;;;;;;;13.62;100.00;102361.97;5056809;28;19978;-79
2023/09/14 08:02:08;;;;;;;;;;;;;;;13.71;100.00;102360.81;5057565;28;19929;-78
2023/09/14 08:04:53;;;;;;;;;;;;;;;13.78;100.00;102359.66;5046240;28;20407;-79
2023/09/14 08:07:39;;;;;;;;;;;;;;;13.79;100.00;102360.56;5056524;28;19933;-78
2023/09/14 08:10:25;;;;;;;;;;;;;;;13.80;100.00;102355.19;5042363;28;19933;-80
2023/09/14 08:13:11;;;;;;;;;;;;;;;13.84;100.00;102355.94;5040123;28;19933;-77
2023/09/14 08:16:06;;;;;;;;;;;;;;;13.90;100.00;102361.03;5056412;28;20008;-77
2023/09/14 08:18:52;;;;;;;;;;;;;;;13.96;100.00;102358.13;5057489;28;19936;-79
2023/09/14 08:21:37;;;;;;;;;;;;;;;14.05;100.00;102359.63;5055929;28;19929;-80
2023/09/14 08:24:23;;;;;;;;;;;;;;;14.15;100.00;102364.63;5054154;28;20027;-80
2023/09/14 08:27:12;;;;;;;;;;;;;;;14.25;100.00;102366.00;5038736;28;19928;-80
2023/09/14 08:29:57;;;;;;;;;;;;;;;14.34;100.00;102363.00;5044596;28;20343;-79
2023/09/14 08:32:43;;;;;;;;;;;;;;;14.42;100.00;102372.53;5039773;28;20345;-81
2023/09/14 08:35:31;;;;;;;;;;;;;;;14.49;100.00;102374.88;5037445;28;19928;-79
2023/09/14 08:38:17;;;;;;;;;;;;;;;14.59;100.00;102379.88;5053620;28;20051;-79
2023/09/14 08:41:04;;;;;;;;;;;;;;;14.72;100.00;102370.47;5051609;28;19943;-80
2023/09/14 08:43:50;;;;;;;;;;;;;;;14.85;100.00;102381.56;5023197;28;20034;-81
2023/09/14 08:46:36;;;;;;;;;;;;;;;14.97;100.00;102376.69;5051636;28;20737;-81
2023/09/14 08:49:21;;;;;;;;;;;;;;;15.05;100.00;102380.75;5030152;28;19936;-80
2023/09/14 08:52:07;;;;;;;;;;;;;;;15.16;100.00;102382.13;5033455;28;20011;-79
2023/09/14 08:54:53;;;;;;;;;;;;;;;15.23;100.00;102380.06;5050686;28;20384;-80
2023/09/14 08:57:42;;;;;;;;;;;;;;;15.31;100.00;102386.00;5028314;28;19929;-78
2023/09/14 09:00:28;;;;;;;;;;;;;;;15.39;100.00;102374.97;5035519;28;20261;-79
2023/09/14 09:03:24;;;;;;;;;;;;;;;15.49;100.00;102376.34;5048490;28;19940;-91
2023/09/14 09:06:10;;;;;;;;;;;;;;;15.61;100.00;102378.50;5052451;28;19943;-85
2023/09/14 09:08:56;;;;;;;;;;;;;;;15.72;100.00;102366.47;5041342;28;19978;-85
2023/09/14 09:11:42;;;;;;;;;;;;;;;15.86;100.00;102369.41;5057939;28;19998;-84
2023/09/14 09:14:31;;;;;;;;;;;;;;;16.02;100.00;102366.13;5040657;28;19924;-84
2023/09/14 09:17:17;;;;;;;;;;;;;;;16.11;100.00;102363.03;5054943;28;19950;-83
2023/09/14 09:20:04;;;;;;;;;;;;;;;16.15;100.00;102359.28;5053335;28;20037;-84
2023/09/14 09:22:50;;;;;;;;;;;;;;;16.20;100.00;102353.72;5035873;28;19998;-84
2023/09/14 09:25:47;;;;;;;;;;;;;;;16.26;100.00;102353.47;5030655;28;20027;-84
2023/09/14 09:28:33;;;;;;;;;;;;;;;16.35;100.00;102354.81;5043753;28;19925;-83
2023/09/14 09:31:19;;;;;;;;;;;;;;;16.43;100.00;102350.00;5058656;28;20023;-85
2023/09/14 09:34:08;;;;;;;;;;;;;;;16.50;100.00;102358.59;5060428;28;19931;-83
2023/09/14 09:36:55;;;;;;;;;;;;;;;16.58;100.00;102349.34;5048028;28;19935;-85
2023/09/14 09:39:43;;;;;;;;;;;;;;;16.63;100.00;102342.84;5059950;28;19928;-87
2023/09/14 09:42:28;;;;;;;;;;;;;;;16.65;100.00;102343.66;5052921;28;19935;-77
2023/09/14 09:45:15;;;;;;;;;;;;;;;16.68;100.00;102343.47;5039984;28;19924;-77
2023/09/14 09:48:01;;;;;;;;;;;;;;;16.80;100.00;102342.06;5032533;28;20294;-77
2023/09/14 09:50:46;;;;;;;;;;;;;;;16.91;100.00;102346.00;5038863;28;19951;-77
2023/09/14 09:53:32;;;;;;;;;;;;;;;16.99;100.00;102348.31;5024167;28;19928;-77
2023/09/14 09:56:18;;;;;;;;;;;;;;;17.07;100.00;102348.81;5053380;28;20032;-79
2023/09/14 09:59:09;;;;;;;;;;;;;;;17.09;100.00;102352.28;5042158;28;20069;-79
2023/09/14 10:01:55;;;;;;;;;;;;;;;17.10;100.00;102359.38;5039335;28;19936;-80
2023/09/14 10:04:44;;;;;;;;;;;;;;;17.12;100.00;102354.81;5059447;28;19924;-80
2023/09/14 10:07:45;;;;;;;;;;;;;;;17.11;100.00;102355.78;5031504;28;19935;-82
2023/09/14 10:10:32;;;;;;;;;;;;;;;17.06;100.00;102355.13;5055669;28;19954;-82
2023/09/14 10:13:22;;;;;;;;;;;;;;;17.03;100.00;102355.25;5056136;28;20018;-81
2023/09/14 10:16:07;;;;;;;;;;;;;;;17.02;100.00;102348.19;5040306;28;19939;-82
2023/09/14 10:18:56;;;;;;;;;;;;;;;17.02;100.00;102338.34;5048963;28;19970;-85
2023/09/14 10:21:42;;;;;;;;;;;;;;;17.06;100.00;102344.41;5037917;28;19925;-83
2023/09/14 10:24:27;;;;;;;;;;;;;;;17.05;100.00;102350.72;5038381;28;19963;-83
2023/09/14 10:27:13;;;;;;;;;;;;;;;17.03;100.00;102344.56;5043906;28;19936;-82
2023/09/14 10:29:59;;;;;;;;;;;;;;;17.03;100.00;102349.91;5039510;28;19978;-84
2023/09/14 10:32:49;;;;;;;;;;;;;;;17.07;100.00;102347.03;5039913;28;19924;-82
2023/09/14 10:35:38;;;;;;;;;;;;;;;17.12;100.00;102348.59;5040979;28;19947;-83
2023/09/14 10:38:24;;;;;;;;;;;;;;;17.18;100.00;102349.16;5056949;28;19938;-83
2023/09/14 10:41:11;;;;;;;;;;;;;;;17.24;100.00;102354.22;5053567;28;19932;-84
2023/09/14 10:43:57;;;;;;;;;;;;;;;17.25;100.00;102347.03;5025477;28;19923;-84
2023/09/14 10:46:43;;;;;;;;;;;;;;;17.28;100.00;102352.25;5055707;28;19928;-85
2023/09/14 10:49:29;;;;;;;;;;;;;;;17.37;100.00;102340.19;5057984;28;19928;-86
2023/09/14 10:52:24;;;;;;;;;;;;;;;17.46;100.00;102336.19;5040163;28;19974;-85
2023/09/14 10:55:10;;;;;;;;;;;;;;;17.50;100.00;102335.09;5054219;28;19901;-86
2023/09/14 10:57:56;;;;;;;;;;;;;;;17.51;100.00;102337.72;5054061;28;19933;-85
2023/09/14 11:00:42;;;;;;;;;;;;;;;17.50;100.00;102335.94;5039970;28;19992;-84
2023/09/14 11:03:29;;;;;;;;;;;;;;;17.54;100.00;102333.13;5052330;28;19960;-83
2023/09/14 11:06:17;;;;;;;;;;;;;;;17.64;100.00;102331.69;5037111;28;21675;-83
2023/09/14 11:09:05;;;;;;;;;;;;;;;17.72;100.00;102331.31;5039613;28;19934;-83
2023/09/14 11:11:55;;;;;;;;;;;;;;;17.79;100.00;102324.69;5040275;28;19936;-84
2023/09/14 11:14:41;;;;;;;;;;;;;;;17.83;100.00;102323.56;5038219;28;19929;-82
2023/09/14 11:17:27;;;;;;;;;;;;;;;17.83;100.00;102323.56;5034127;28;19925;-83
2023/09/14 11:20:19;;;;;;;;;;;;;;;17.82;100.00;102320.97;5021167;28;19924;-84
2023/09/14 11:23:05;;;;;;;;;;;;;;;17.71;100.00;102314.34;5051237;28;19929;-83
2023/09/14 11:25:50;;;;;;;;;;;;;;;17.69;100.00;102312.72;5048593;28;19932;-83
2023/09/14 11:28:42;;;;;;;;;;;;;;;17.73;100.00;102317.84;5053584;28;19966;-84
2023/09/14 11:31:28;;;;;;;;;;;;;;;17.83;100.00;102314.66;5040114;28;19929;-83
2023/09/14 11:34:16;;;;;;;;;;;;;;;17.87;100.00;102314.41;5051615;28;19986;-83
2023/09/14 11:37:07;;;;;;;;;;;;;;;17.85;100.00;102308.28;5050592;28;19966;-83
2023/09/14 11:39:53;;;;;;;;;;;;;;;17.98;100.00;102305.78;5051381;28;20574;-84
2023/09/14 11:42:58;;;;;;;;;;;;;;;18.12;100.00;102306.91;5050960;28;19932;-83
2023/09/14 11:45:43;;;;;;;;;;;;;;;18.19;100.00;102313.66;5052539;28;19947;-83
2023/09/14 11:48:33;;;;;;;;;;;;;;;18.11;100.00;102302.50;5036169;28;19981;-85
2023/09/14 11:51:24;;;;;;;;;;;;;;;18.04;100.00;102301.94;5051802;28;19928;-88
2023/09/14 11:54:10;;;;;;;;;;;;;;;18.02;100.00;102304.69;5028743;28;20299;-88
2023/09/14 11:57:00;;;;;;;;;;;;;;;18.04;100.00;102300.09;5035347;28;20333;-86
2023/09/14 11:59:45;;;;;;;;;;;;;;;18.07;100.00;102300.94;5039256;28;19924;-87
2023/09/14 12:02:31;;;;;;;;;;;;;;;18.02;100.00;102306.50;5036963;28;19932;-88
2023/09/14 12:05:17;;;;;;;;;;;;;;;17.91;99.96;102296.34;5051995;28;19931;-85
2023/09/14 12:08:09;;;;;;;;;;;;;;;17.83;100.00;102290.56;5048422;28;19932;-88
2023/09/14 12:10:55;;;;;;;;;;;;;;;17.95;100.00;102300.63;5031925;28;19936;-87
2023/09/14 12:16:29;;;;;;;;;;;;;;;18.09;100.00;102299.88;5063982;28;20248;-88
2023/09/14 12:19:14;;;;;;;;;;;;;;;18.13;100.00;102297.91;5078097;28;19956;-89
2023/09/14 12:22:00;;;;;;;;;;;;;;;18.18;100.00;102301.19;5077928;28;19928;-86
2023/09/14 12:24:46;;;;;;;;;;;;;;;18.24;99.11;102305.38;5065308;28;19924;-89
2023/09/14 12:27:33;;;;;;;;;;;;;;;18.25;99.23;102305.28;5078115;28;20422;-89
2023/09/14 12:30:19;;;;;;;;;;;;;;;18.23;100.00;102307.19;5067297;28;19920;-89
2023/09/14 12:33:02;;;;;;;;;;;;;;;18.21;99.21;102305.53;5024901;28;19986;-89
2023/09/14 12:35:48;;;;;;;;;;;;;;;18.21;98.83;102297.50;5020304;28;20026;-88
2023/09/14 12:38:34;;;;;;;;;;;;;;;18.15;97.23;102293.34;5026662;28;19933;-88
2023/09/14 12:41:20;;;;;;;;;;;;;;;18.16;97.71;102292.38;5016094;28;19925;-80
2023/09/14 12:44:22;;;;;;;;;;;;;;;18.19;93.79;102293.09;5028197;28;20356;-81
2023/09/14 12:47:08;;;;;;;;;;;;;;;18.26;95.34;102287.38;5037180;28;19933;-79
2023/09/14 12:49:59;;;;;;;;;;;;;;;18.31;97.29;102290.69;5027972;28;19929;-80
2023/09/14 12:52:46;;;;;;;;;;;;;;;18.36;96.06;102285.91;5011401;28;20099;-80
2023/09/14 12:55:31;;;;;;;;;;;;;;;18.38;95.16;102283.16;5017096;28;21729;-81
2023/09/14 12:58:17;;;;;;;;;;;;;;;18.38;95.15;102283.16;5012059;28;20043;-80
2023/09/14 13:01:05;;;;;;;;;;;;;;;18.41;96.69;102280.31;5027451;28;19933;-80
2023/09/14 13:03:51;;;;;;;;;;;;;;;18.43;95.61;102273.88;5037452;28;20330;-81
2023/09/14 13:06:36;;;;;;;;;;;;;;;18.45;95.49;102279.19;5051345;28;20030;-79
2023/09/14 13:09:23;;;;;;;;;;;;;;;18.43;94.19;102267.69;5048759;28;21802;-82
2023/09/14 13:12:08;;;;;;;;;;;;;;;18.39;93.55;102277.72;5044325;28;19988;-82
2023/09/14 13:14:54;;;;;;;;;;;;;;;18.39;94.96;102268.78;5052245;28;19928;-81
2023/09/14 13:17:40;;;;;;;;;;;;;;;18.40;93.55;102255.31;5037791;28;20047;-82
2023/09/14 13:20:26;;;;;;;;;;;;;;;18.38;91.58;102265.28;5050979;28;20353;-81
2023/09/14 13:23:12;;;;;;;;;;;;;;;18.36;92.91;102264.47;5042175;28;20009;-82
2023/09/14 13:25:59;;;;;;;;;;;;;;;18.36;95.02;102266.31;5065208;28;19924;-83
2023/09/14 13:28:45;;;;;;;;;;;;;;;18.37;95.54;102258.19;5063120;28;19929;-82
2023/09/14 13:31:31;;;;;;;;;;;;;;;18.38;94.48;102253.66;5048873;28;20014;-82
2023/09/14 13:34:16;;;;;;;;;;;;;;;18.46;93.36;102256.78;5050086;28;19929;-81
2023/09/14 13:37:02;;;;;;;;;;;;;;;18.51;97.52;102248.50;5032690;28;19967;-82
2023/09/14 13:39:48;;;;;;;;;;;;;;;18.54;94.57;102246.50;5041309;28;19928;-83
2023/09/14 13:42:33;;;;;;;;;;;;;;;18.57;91.00;102242.75;5050352;28;20188;-79
2023/09/14 13:45:19;;;;;;;;;;;;;;;18.55;90.49;102240.19;5035075;28;20495;-81
2023/09/14 13:48:05;;;;;;;;;;;;;;;18.54;92.15;102238.44;5045235;28;19987;-79
2023/09/14 13:50:51;;;;;;;;;;;;;;;18.54;89.00;102233.09;5050389;28;19933;-79
2023/09/14 13:53:37;;;;;;;;;;;;;;;18.53;90.64;102230.50;5050629;28;19928;-80
2023/09/14 13:56:28;;;;;;;;;;;;;;;18.51;91.01;102233.25;5052927;28;19979;-80
2023/09/14 13:59:13;;;;;;;;;;;;;;;18.49;90.38;102232.47;5052958;28;20047;-81
2023/09/14 14:02:02;;;;;;;;;;;;;;;18.46;86.85;102235.31;5053293;28;19951;-79
2023/09/14 14:04:48;;;;;;;;;;;;;;;18.41;89.19;102226.69;5051929;28;19928;-78
2023/09/14 14:07:33;;;;;;;;;;;;;;;18.39;88.65;102232.13;5049069;28;20380;-80
2023/09/14 14:10:19;;;;;;;;;;;;;;;18.50;92.53;102236.88;5039191;28;21500;-79
2023/09/14 14:13:05;;;;;;;;;;;;;;;18.54;91.51;102227.72;5052273;28;20448;-79